Time;durP1;ratioP1;P1;durP2;ratioP2;P2;SDS_P1;SDS_P2;PMS_P1;PMS_P2;Temp;Humidity;BMP_temperature;BMP_pressure;BME280_temperature;BME280_humidity;BME280_pressure;Samples;Min_cycle;Max_cycle;Signal;HPM_P1;HPM_P2
2024/03/08 00:01:46;;;;;;;49.53;21.58;;;;;;;7.32;68.85;101961.75;5051458;28;20036;-47
2024/03/08 00:04:11;;;;;;;51.20;22.27;;;;;;;7.48;67.58;101952.94;5052004;28;20052;-47
2024/03/08 00:06:37;;;;;;;49.85;21.45;;;;;;;7.40;68.21;101951.72;5051459;28;20037;-47
2024/03/08 00:09:02;;;;;;;44.05;20.13;;;;;;;7.61;67.37;101960.44;5050795;28;20025;-46
2024/03/08 00:11:27;;;;;;;49.60;21.05;;;;;;;7.42;68.08;101948.38;5051352;28;20045;-45
2024/03/08 00:13:53;;;;;;;49.67;21.70;;;;;;;7.62;66.66;101944.03;5051478;28;20120;-48
2024/03/08 00:16:23;;;;;;;50.17;21.88;;;;;;;7.75;66.72;101948.91;5051986;28;20040;-45
2024/03/08 00:18:49;;;;;;;45.10;19.52;;;;;;;7.00;68.78;101947.38;5051183;28;20145;-46
2024/03/08 00:21:15;;;;;;;46.33;19.88;;;;;;;7.05;68.98;101943.28;5066562;28;20509;-45
2024/03/08 00:23:41;;;;;;;49.78;21.10;;;;;;;7.42;67.27;101935.41;5050652;28;20099;-46
2024/03/08 00:26:06;;;;;;;47.83;21.13;;;;;;;7.22;67.88;101936.25;5051339;28;20037;-47
2024/03/08 00:28:34;;;;;;;50.63;21.23;;;;;;;7.74;65.78;101928.97;5051520;28;20121;-46
2024/03/08 00:31:00;;;;;;;52.28;20.92;;;;;;;7.89;65.36;101927.00;5051315;28;20029;-46
2024/03/08 00:33:25;;;;;;;51.83;22.33;;;;;;;7.63;65.78;101930.22;5050794;28;20043;-46
2024/03/08 00:35:51;;;;;;;48.92;21.63;;;;;;;7.47;66.46;101936.47;5051482;28;20063;-47
2024/03/08 00:38:16;;;;;;;48.22;20.50;;;;;;;7.50;66.38;101925.34;5051337;28;20067;-43
2024/03/08 00:40:41;;;;;;;47.83;21.77;;;;;;;7.81;65.17;101922.34;5050544;28;20119;-44
2024/03/08 00:43:07;;;;;;;48.83;21.35;;;;;;;7.35;66.11;101917.78;5051035;28;20117;-46
2024/03/08 00:45:32;;;;;;;44.13;20.52;;;;;;;7.16;67.19;101917.81;5051053;28;20056;-45
2024/03/08 00:47:57;;;;;;;47.50;21.20;;;;;;;7.21;66.81;101924.09;5051486;28;20025;-46
2024/03/08 00:50:22;;;;;;;47.85;21.67;;;;;;;7.45;66.04;101914.75;5051569;28;20033;-47
2024/03/08 00:52:48;;;;;;;48.13;21.25;;;;;;;7.50;65.29;101910.66;5050525;28;20163;-48
2024/03/08 00:55:13;;;;;;;48.45;21.15;;;;;;;7.64;64.44;101913.81;5050641;28;20399;-46
2024/03/08 00:57:39;;;;;;;49.53;21.65;;;;;;;7.60;65.13;101912.81;5050793;28;20045;-46
2024/03/08 01:00:09;;;;;;;48.42;20.77;;;;;;;7.49;65.19;101908.91;5051661;28;20036;-47
2024/03/08 01:02:35;;;;;;;52.35;21.70;;;;;;;7.57;65.02;101906.59;5050264;28;20047;-46
2024/03/08 01:05:01;;;;;;;49.42;21.10;;;;;;;7.58;64.85;101898.00;5050889;28;20029;-46
2024/03/08 01:07:26;;;;;;;50.28;21.10;;;;;;;7.30;65.08;101895.97;5050670;28;20083;-45
2024/03/08 01:09:51;;;;;;;47.90;20.63;;;;;;;7.36;64.75;101898.81;5050834;28;20029;-46
2024/03/08 01:12:17;;;;;;;49.35;21.55;;;;;;;7.48;64.33;101890.66;5050667;28;20029;-46
2024/03/08 01:14:42;;;;;;;49.72;21.33;;;;;;;7.30;64.72;101889.06;5051233;28;20591;-47
2024/03/08 01:17:09;;;;;;;46.10;21.25;;;;;;;7.40;64.34;101879.06;5051311;28;20225;-46
2024/03/08 01:19:34;;;;;;;48.83;20.42;;;;;;;7.39;64.46;101885.06;5052315;28;20462;-46
2024/03/08 01:22:00;;;;;;;48.67;21.00;;;;;;;7.34;65.36;101878.00;5051263;28;20028;-46
2024/03/08 01:24:25;;;;;;;46.75;20.80;;;;;;;7.30;65.18;101878.69;5049816;28;20515;-45
2024/03/08 01:26:50;;;;;;;43.78;20.85;;;;;;;7.01;65.85;101878.28;5050170;28;20033;-46
2024/03/08 01:29:15;;;;;;;45.60;20.65;;;;;;;7.36;64.28;101872.88;5050978;28;20060;-47
2024/03/08 01:31:41;;;;;;;46.22;21.45;;;;;;;6.92;66.01;101870.97;5049051;28;20499;-45
2024/03/08 01:34:06;;;;;;;47.28;20.95;;;;;;;7.50;63.44;101866.53;5050296;28;20033;-47
2024/03/08 01:36:31;;;;;;;44.92;21.42;;;;;;;7.08;64.72;101867.31;5049618;28;20037;-46
2024/03/08 01:38:57;;;;;;;51.97;21.70;;;;;;;7.44;63.88;101860.25;5050053;28;20021;-46
2024/03/08 01:41:23;;;;;;;49.20;21.27;;;;;;;7.08;64.69;101862.13;5049931;28;20041;-45
2024/03/08 01:43:50;;;;;;;48.60;21.45;;;;;;;7.01;65.27;101852.34;5049285;28;20095;-46
2024/03/08 01:46:18;;;;;;;48.53;21.77;;;;;;;7.08;64.88;101855.25;5050449;28;20403;-47
2024/03/08 01:48:44;;;;;;;47.33;21.65;;;;;;;7.03;64.76;101851.56;5049908;28;20557;-47
2024/03/08 01:51:11;;;;;;;45.95;21.15;;;;;;;6.96;64.66;101852.13;5052337;28;20032;-46
2024/03/08 01:53:37;;;;;;;48.35;21.60;;;;;;;7.08;64.79;101843.97;5049456;28;20100;-45
2024/03/08 01:56:02;;;;;;;48.40;20.75;;;;;;;7.09;64.55;101841.47;5047900;28;20033;-46
2024/03/08 01:58:29;;;;;;;47.15;21.45;;;;;;;7.06;64.47;101845.66;5050149;28;20033;-48
2024/03/08 02:00:56;;;;;;;48.28;21.13;;;;;;;7.03;65.03;101843.78;5051124;28;20029;-49
2024/03/08 02:03:22;;;;;;;47.53;21.52;;;;;;;6.59;66.18;101841.84;5050773;28;20549;-44
2024/03/08 02:05:48;;;;;;;47.03;21.08;;;;;;;6.77;65.49;101834.88;5050049;28;20037;-45
2024/03/08 02:08:14;;;;;;;48.30;21.13;;;;;;;7.02;64.79;101836.84;5051316;28;20384;-46
2024/03/08 02:10:41;;;;;;;54.53;21.75;;;;;;;7.02;64.64;101831.66;5051080;28;20116;-47
2024/03/08 02:13:07;;;;;;;47.63;21.27;;;;;;;6.99;64.61;101830.63;5049950;28;20107;-46
2024/03/08 02:15:51;;;;;;;52.42;21.88;;;;;;;6.81;65.56;101828.13;5049488;28;20450;-47
2024/03/08 02:18:17;;;;;;;50.45;22.25;;;;;;;7.03;64.27;101820.47;5049815;28;20087;-46
2024/03/08 02:20:43;;;;;;;47.13;21.33;;;;;;;7.10;63.41;101817.31;5049259;28;20037;-46
2024/03/08 02:23:08;;;;;;;50.45;21.77;;;;;;;6.92;64.45;101816.53;5049615;28;20239;-45
2024/03/08 02:25:34;;;;;;;51.85;22.05;;;;;;;6.55;65.46;101810.56;5064646;28;20048;-46
2024/03/08 02:28:00;;;;;;;48.03;21.55;;;;;;;6.88;64.67;101807.75;5050113;28;20040;-45
2024/03/08 02:30:29;;;;;;;51.88;21.83;;;;;;;6.72;65.12;101799.22;5049877;28;20409;-46
2024/03/08 02:32:54;;;;;;;48.08;21.65;;;;;;;6.59;65.99;101799.53;5052722;28;20037;-47
2024/03/08 02:35:20;;;;;;;44.88;21.13;;;;;;;6.51;65.98;101794.88;5053870;28;20047;-45
2024/03/08 02:37:47;;;;;;;49.30;21.42;;;;;;;6.82;64.31;101794.53;5053219;28;20029;-49
2024/03/08 02:40:13;;;;;;;52.03;20.90;;;;;;;6.73;64.35;101790.63;5053480;28;20033;-46
2024/03/08 02:42:38;;;;;;;49.42;21.52;;;;;;;6.78;64.51;101790.00;5052907;28;20043;-45
2024/03/08 02:45:05;;;;;;;46.97;21.08;;;;;;;6.89;63.59;101785.31;5054123;28;20056;-45
2024/03/08 02:47:31;;;;;;;48.72;21.80;;;;;;;6.61;64.10;101783.22;5053748;28;20044;-47
2024/03/08 02:49:56;;;;;;;50.15;21.83;;;;;;;6.44;65.40;101785.06;5053706;28;20033;-47
2024/03/08 02:52:21;;;;;;;50.33;22.30;;;;;;;6.60;64.66;101781.44;5052818;28;20037;-45
2024/03/08 02:54:48;;;;;;;48.22;21.88;;;;;;;6.69;64.92;101780.97;5052939;28;20029;-45
2024/03/08 02:57:14;;;;;;;50.30;22.10;;;;;;;6.42;65.02;101775.44;5053333;28;20037;-48
2024/03/08 02:59:40;;;;;;;45.65;20.58;;;;;;;6.71;64.26;101769.81;5053561;28;20083;-45
2024/03/08 03:02:06;;;;;;;50.55;21.30;;;;;;;6.41;65.31;101768.50;5054355;28;20461;-45
2024/03/08 03:04:34;;;;;;;48.58;21.85;;;;;;;6.53;65.04;101775.09;5056105;28;20672;-45
2024/03/08 03:07:00;;;;;;;46.60;21.30;;;;;;;6.42;65.51;101762.50;5056746;28;20029;-47
2024/03/08 03:09:27;;;;;;;52.25;22.73;;;;;;;6.24;65.27;101753.91;5055242;28;20044;-46
2024/03/08 03:11:55;;;;;;;50.03;22.17;;;;;;;6.32;65.15;101757.75;5053960;28;20463;-45
2024/03/08 03:14:22;;;;;;;46.78;20.83;;;;;;;6.13;65.65;101753.44;5053567;28;20086;-45
2024/03/08 03:16:47;;;;;;;46.35;21.05;;;;;;;6.48;64.26;101749.81;5053122;28;20037;-43
2024/03/08 03:19:12;;;;;;;50.97;21.90;;;;;;;6.37;64.68;101756.22;5057101;28;20031;-46
2024/03/08 03:21:38;;;;;;;49.80;21.83;;;;;;;6.33;65.14;101749.16;5055791;28;20029;-47
2024/03/08 03:24:09;;;;;;;51.00;21.83;;;;;;;6.06;65.65;101746.22;5055133;28;20037;-45
2024/03/08 03:26:37;;;;;;;47.78;22.38;;;;;;;6.18;65.57;101738.09;5054163;28;20075;-45
2024/03/08 03:29:03;;;;;;;48.03;22.20;;;;;;;6.16;65.30;101737.16;5053404;28;20025;-45
2024/03/08 03:31:28;;;;;;;51.40;22.05;;;;;;;6.06;65.59;101733.25;5052518;28;20037;-45
2024/03/08 03:33:54;;;;;;;48.10;22.08;;;;;;;6.02;65.34;101733.94;5052519;28;20056;-45
2024/03/08 03:36:19;;;;;;;49.97;21.85;;;;;;;6.38;64.23;101727.81;5052732;28;20032;-48
2024/03/08 03:38:45;;;;;;;51.55;22.48;;;;;;;6.10;65.36;101729.97;5052327;28;20399;-47
2024/03/08 03:41:10;;;;;;;47.08;21.92;;;;;;;5.97;65.51;101727.69;5052524;28;20061;-50
2024/03/08 03:43:38;;;;;;;52.78;21.92;;;;;;;6.44;64.19;101727.19;5051892;28;20044;-48
2024/03/08 03:46:07;;;;;;;49.30;22.27;;;;;;;6.10;64.83;101725.69;5052172;28;20083;-45
2024/03/08 03:48:33;;;;;;;50.90;22.70;;;;;;;6.11;65.11;101724.88;5051904;28;20064;-46
2024/03/08 03:50:58;;;;;;;51.42;22.95;;;;;;;6.11;64.31;101716.22;5052980;28;20110;-47
2024/03/08 03:53:25;;;;;;;50.85;24.20;;;;;;;5.85;64.62;101716.75;5052314;28;20051;-48
2024/03/08 03:55:51;;;;;;;46.85;21.95;;;;;;;5.94;65.21;101715.47;5052258;28;20045;-46
2024/03/08 03:58:22;;;;;;;49.58;22.52;;;;;;;5.82;65.08;101719.19;5052899;28;20131;-46
2024/03/08 04:00:47;;;;;;;50.03;22.48;;;;;;;6.17;63.98;101710.44;5051944;28;20037;-46
2024/03/08 04:03:12;;;;;;;49.88;21.98;;;;;;;5.86;64.61;101713.31;5051931;28;20090;-48
2024/03/08 04:05:39;;;;;;;50.20;23.08;;;;;;;5.94;64.42;101709.41;5052150;28;20102;-44
2024/03/08 04:08:04;;;;;;;46.22;22.95;;;;;;;6.06;63.50;101707.38;5052578;28;20029;-47
2024/03/08 04:10:29;;;;;;;49.17;22.60;;;;;;;5.84;64.07;101696.84;5052115;28;20033;-47
2024/03/08 04:12:56;;;;;;;45.50;21.95;;;;;;;5.85;63.84;101701.22;5052841;28;20029;-43
2024/03/08 04:15:22;;;;;;;48.35;22.80;;;;;;;5.91;64.08;101698.94;5053505;28;20418;-44
2024/03/08 04:17:48;;;;;;;49.05;23.80;;;;;;;6.14;62.82;101698.25;5053322;28;20499;-46
2024/03/08 04:20:14;;;;;;;51.65;22.95;;;;;;;6.25;62.66;101696.13;5052999;28;20036;-46
2024/03/08 04:22:39;;;;;;;47.33;22.75;;;;;;;6.20;62.57;101687.28;5051236;28;20036;-44
2024/03/08 04:25:06;;;;;;;49.10;22.75;;;;;;;5.79;63.88;101688.00;5053217;28;20052;-46
2024/03/08 04:27:32;;;;;;;48.08;23.17;;;;;;;5.96;63.16;101692.25;5053357;28;20029;-44
2024/03/08 04:29:59;;;;;;;49.92;22.70;;;;;;;6.05;62.90;101684.88;5054648;28;20029;-46
2024/03/08 04:32:24;;;;;;;50.90;23.30;;;;;;;5.90;63.24;101687.69;5053230;28;20033;-47
2024/03/08 04:34:49;;;;;;;50.80;22.33;;;;;;;5.70;63.65;101683.28;5054289;28;20033;-45
2024/03/08 04:37:17;;;;;;;47.88;22.30;;;;;;;5.38;64.91;101689.53;5053650;28;20127;-48
2024/03/08 04:39:42;;;;;;;49.25;23.10;;;;;;;5.77;63.82;101689.63;5053351;28;20033;-47
2024/03/08 04:42:10;;;;;;;51.47;24.02;;;;;;;5.97;62.79;101681.09;5053301;28;20033;-44
2024/03/08 04:44:37;;;;;;;49.70;23.38;;;;;;;5.82;63.61;101685.53;5051645;28;20167;-47
2024/03/08 04:47:05;;;;;;;47.35;22.77;;;;;;;5.95;62.95;101683.63;5079835;23;20052;-82
2024/03/08 04:49:34;;;;;;;52.95;23.70;;;;;;;5.78;62.79;101689.69;5078039;28;20489;-79
2024/03/08 04:52:06;;;;;;;49.72;22.95;;;;;;;5.94;62.86;101676.66;5078515;28;20383;-79
2024/03/08 04:54:32;;;;;;;49.97;22.52;;;;;;;5.89;62.09;101680.75;5074679;28;20040;-79
2024/03/08 04:57:00;;;;;;;51.35;22.55;;;;;;;5.76;62.93;101678.38;5080363;28;20148;-80
2024/03/08 04:59:29;;;;;;;49.72;23.58;;;;;;;5.53;63.52;101673.88;5077956;28;20405;-80
2024/03/08 05:01:54;;;;;;;49.42;23.17;;;;;;;5.62;63.29;101670.00;5078098;28;20032;-79
2024/03/08 05:04:20;;;;;;;49.75;23.83;;;;;;;5.84;62.22;101666.69;5078439;28;20036;-78
2024/03/08 05:06:45;;;;;;;49.60;22.58;;;;;;;5.66;63.02;101658.09;5076651;28;20127;-80
2024/03/08 05:09:14;;;;;;;47.17;22.52;;;;;;;5.67;62.62;101665.03;5076561;28;20024;-80
2024/03/08 05:11:42;;;;;;;49.60;22.38;;;;;;;5.56;63.82;101661.06;5076524;28;20087;-79
2024/03/08 05:14:08;;;;;;;47.83;22.88;;;;;;;5.81;62.67;101661.34;5071614;28;20085;-79
2024/03/08 05:16:33;;;;;;;51.83;24.45;;;;;;;5.66;62.90;101659.00;5075782;28;20040;-79
2024/03/08 05:19:08;;;;;;;48.20;23.38;;;;;;;5.71;62.28;101659.19;5076012;28;20035;-80
2024/03/08 05:21:36;;;;;;;54.00;23.23;;;;;;;5.49;63.49;101659.03;5076380;28;20498;-80
2024/03/08 05:24:07;;;;;;;53.53;23.85;;;;;;;5.60;63.12;101653.53;5074713;28;20052;-79
2024/03/08 05:26:33;;;;;;;49.70;23.48;;;;;;;5.77;62.70;101650.81;5075080;28;20028;-78
2024/03/08 05:28:58;;;;;;;49.28;24.02;;;;;;;5.77;62.51;101654.28;5076879;28;20032;-79
2024/03/08 05:31:23;;;;;;;48.25;22.40;;;;;;;5.91;61.76;101650.66;5074435;28;20056;-79
2024/03/08 05:33:54;;;;;;;51.00;24.17;;;;;;;5.33;63.64;101654.84;5075103;28;20046;-78
2024/03/08 05:36:19;;;;;;;48.00;23.38;;;;;;;5.57;63.08;101650.78;5074969;28;20059;-78
2024/03/08 05:39:06;;;;;;;55.10;22.90;;;;;;;5.56;63.53;101651.59;5076264;28;20048;-80
2024/03/08 05:41:34;;;;;;;47.85;22.92;;;;;;;5.31;63.39;101651.28;5073273;28;20465;-79
2024/03/08 05:44:12;;;;;;;48.20;23.45;;;;;;;5.26;64.20;101645.00;5075245;28;20107;-79
2024/03/08 05:46:38;;;;;;;50.88;23.10;;;;;;;5.48;63.07;101655.56;5075717;28;20052;-79
2024/03/08 05:49:24;;;;;;;50.80;23.30;;;;;;;5.89;61.75;101647.09;5079812;28;20066;-79
2024/03/08 05:51:51;;;;;;;49.30;22.52;;;;;;;5.51;62.90;101650.50;5077088;28;20093;-79
2024/03/08 05:54:22;;;;;;;47.97;23.05;;;;;;;5.69;61.58;101643.59;5078239;28;20029;-79
2024/03/08 05:56:52;;;;;;;51.88;23.60;;;;;;;5.58;62.57;101649.09;5072555;28;20039;-79
2024/03/08 05:59:18;;;;;;;52.22;23.80;;;;;;;5.40;63.56;101648.25;5064518;28;20043;-79
2024/03/08 06:01:49;;;;;;;51.30;24.23;;;;;;;5.23;63.68;101645.78;5074797;28;20865;-78
2024/03/08 06:04:18;;;;;;;53.65;24.17;;;;;;;5.77;62.28;101637.88;5071388;28;20500;-78
2024/03/08 06:06:46;;;;;;;50.13;23.40;;;;;;;5.52;62.77;101633.28;5072280;28;20040;-79
2024/03/08 06:09:22;;;;;;;51.35;23.63;;;;;;;5.22;63.53;101632.78;5076234;28;20460;-78
2024/03/08 06:11:47;;;;;;;48.85;22.83;;;;;;;5.24;63.56;101633.72;5074604;28;20029;-79
2024/03/08 06:14:13;;;;;;;51.47;24.42;;;;;;;5.27;63.41;101631.28;5076295;28;20125;-79
2024/03/08 06:16:38;;;;;;;55.03;24.35;;;;;;;5.28;63.53;101630.47;5075257;28;20041;-77
2024/03/08 06:19:06;;;;;;;55.20;23.40;;;;;;;5.75;62.09;101626.56;5074525;28;20040;-77
2024/03/08 06:21:41;;;;;;;52.53;24.20;;;;;;;5.74;61.41;101630.84;5072601;28;20123;-78
2024/03/08 06:24:06;;;;;;;;;;;;;;;5.51;62.89;101631.53;5073741;28;20041;-75
2024/03/08 06:26:31;;;;;;;51.25;22.55;;;;;;;5.59;62.36;101630.19;5073466;28;19924;-77
2024/03/08 06:28:57;;;;;;;50.17;22.45;;;;;;;5.86;61.72;101620.16;5075389;28;20024;-78
2024/03/08 06:31:23;;;;;;;55.13;24.67;;;;;;;5.80;60.89;101623.34;5075230;28;20102;-75
2024/03/08 06:33:54;;;;;;;46.70;22.95;;;;;;;5.92;60.95;101628.22;5074054;28;20362;-77
2024/03/08 06:36:23;;;;;;;51.92;23.92;;;;;;;5.78;61.18;101625.00;5074081;28;20405;-77
2024/03/08 06:38:51;;;;;;;48.47;23.70;;;;;;;5.88;61.09;101621.16;5073710;28;20475;-79
2024/03/08 06:41:19;;;;;;;50.47;22.55;;;;;;;5.64;62.10;101618.34;5074491;28;20032;-78
2024/03/08 06:43:48;;;;;;;51.60;23.83;;;;;;;5.70;61.51;101614.31;5072112;28;20032;-77
2024/03/08 06:46:17;;;;;;;50.15;23.50;;;;;;;5.57;62.71;101603.34;5072845;28;20090;-78
2024/03/08 06:48:45;;;;;;;53.55;24.27;;;;;;;5.88;61.36;101600.44;5074021;28;20394;-77
2024/03/08 06:51:11;;;;;;;56.60;24.05;;;;;;;6.08;60.58;101595.34;5074046;28;20029;-79
2024/03/08 06:53:39;;;;;;;48.00;23.02;;;;;;;6.48;60.35;101600.47;5073343;28;20367;-79
2024/03/08 06:56:07;;;;;;;50.70;24.05;;;;;;;6.95;58.09;101593.75;5072155;28;20024;-77
2024/03/08 06:58:33;;;;;;;49.33;23.17;;;;;;;7.49;56.32;101594.06;5074776;28;20065;-78
2024/03/08 07:01:00;;;;;;;46.28;22.33;;;;;;;7.72;54.98;101591.50;5077104;28;20025;-78
2024/03/08 07:03:27;;;;;;;45.47;22.88;;;;;;;7.90;53.57;101585.19;5079829;28;20040;-79
2024/03/08 07:05:52;;;;;;;44.97;22.83;;;;;;;8.09;52.40;101585.00;5082702;28;20032;-78
2024/03/08 07:08:18;;;;;;;45.67;22.17;;;;;;;8.64;50.52;101581.69;5082869;28;20615;-77
2024/03/08 07:10:50;;;;;;;44.85;22.83;;;;;;;9.15;49.02;101579.84;5082838;28;20028;-77
2024/03/08 07:13:16;;;;;;;45.20;22.02;;;;;;;9.21;48.82;101585.22;5074187;28;20097;-79
2024/03/08 07:15:42;;;;;;;44.35;21.80;;;;;;;9.29;48.01;101582.00;5073393;28;20438;-78
2024/03/08 07:18:08;;;;;;;46.90;22.40;;;;;;;9.10;48.87;101573.59;5074507;28;20032;-78
2024/03/08 07:20:35;;;;;;;42.65;22.15;;;;;;;9.39;48.17;101580.56;5081580;28;20040;-79
2024/03/08 07:23:00;;;;;;;42.13;21.80;;;;;;;9.66;47.00;101578.75;5081381;28;20033;-76
2024/03/08 07:25:35;;;;;;;45.47;22.67;;;;;;;8.91;47.94;101577.34;5081080;28;20043;-77
2024/03/08 07:28:00;;;;;;;43.08;22.33;;;;;;;8.37;49.65;101569.53;5081583;28;20033;-77
2024/03/08 07:30:52;;;;;;;45.70;22.23;;;;;;;7.81;51.91;101572.75;5075842;28;20036;-78
2024/03/08 07:33:18;;;;;;;47.63;22.70;;;;;;;7.72;52.63;101575.03;5073506;28;20036;-77
2024/03/08 07:35:45;;;;;;;49.40;22.83;;;;;;;7.37;53.07;101573.75;5073694;28;20646;-78
2024/03/08 07:38:11;;;;;;;45.70;22.23;;;;;;;6.90;55.19;101575.38;5073749;28;20028;-79
2024/03/08 07:40:44;;;;;;;46.65;22.77;;;;;;;7.30;54.93;101580.41;5072904;28;20032;-79
2024/03/08 07:43:10;;;;;;;47.70;22.20;;;;;;;7.14;55.12;101567.66;5072891;28;20408;-76
2024/03/08 07:45:36;;;;;;;46.47;22.55;;;;;;;7.34;54.50;101574.50;5072559;28;20055;-78
2024/03/08 07:48:02;;;;;;;49.13;23.17;;;;;;;7.63;53.62;101570.38;5071415;28;20488;-77
2024/03/08 07:50:28;;;;;;;46.35;22.38;;;;;;;7.33;54.21;101564.94;5072164;28;20036;-79
2024/03/08 07:52:57;;;;;;;46.25;22.50;;;;;;;7.53;54.11;101565.69;5072716;28;20609;-78
2024/03/08 07:55:24;;;;;;;44.60;23.05;;;;;;;7.87;53.06;101565.19;5073568;28;20044;-79
2024/03/08 07:57:49;;;;;;;49.00;23.83;;;;;;;7.42;54.08;101567.03;5072651;28;20090;-79
2024/03/08 08:00:17;;;;;;;45.63;22.58;;;;;;;7.57;54.21;101556.28;5072329;28;20024;-77
2024/03/08 08:02:45;;;;;;;45.38;22.40;;;;;;;7.43;54.26;101552.34;5071223;28;20093;-77
2024/03/08 08:05:11;;;;;;;47.58;24.27;;;;;;;7.35;54.80;101557.25;5073188;28;20538;-77
2024/03/08 08:07:36;;;;;;;42.78;22.15;;;;;;;7.37;54.55;101563.38;5071727;28;20036;-77
2024/03/08 08:10:01;;;;;;;48.20;23.30;;;;;;;8.19;52.44;101555.91;5070816;28;20489;-79
2024/03/08 08:12:28;;;;;;;46.85;22.58;;;;;;;7.63;53.90;101548.72;5069940;28;20079;-79
2024/03/08 08:14:54;;;;;;;43.10;22.00;;;;;;;7.71;53.47;101547.31;5070391;28;20040;-79
2024/03/08 08:17:20;;;;;;;48.47;22.65;;;;;;;7.41;53.88;101541.00;5071926;28;20044;-78
2024/03/08 08:19:45;;;;;;;42.97;21.77;;;;;;;7.68;52.65;101531.63;5071636;28;20246;-77
2024/03/08 08:22:11;;;;;;;41.00;21.63;;;;;;;7.99;53.54;101531.84;5071762;28;20405;-78
2024/03/08 08:24:36;;;;;;;45.50;22.50;;;;;;;8.19;52.67;101539.44;5071054;28;20048;-77
2024/03/08 08:27:02;;;;;;;45.60;22.30;;;;;;;7.99;53.04;101534.44;5072370;28;20039;-77
2024/03/08 08:29:28;;;;;;;46.55;22.85;;;;;;;8.56;51.18;101526.84;5070780;28;20045;-78
2024/03/08 08:31:59;;;;;;;44.38;21.15;;;;;;;8.08;52.41;101526.09;5070319;28;20044;-79
2024/03/08 08:34:26;;;;;;;47.38;22.20;;;;;;;8.10;52.40;101529.63;5073639;28;20032;-79
2024/03/08 08:36:52;;;;;;;42.60;21.23;;;;;;;8.53;52.24;101527.66;5075199;28;20071;-80
2024/03/08 08:39:18;;;;;;;47.58;22.30;;;;;;;8.49;51.38;101520.56;5075138;28;20041;-82
2024/03/08 08:41:47;;;;;;;41.42;21.35;;;;;;;8.46;51.38;101517.00;5081691;28;20105;-79
2024/03/08 08:44:12;;;;;;;47.65;22.75;;;;;;;7.93;52.08;101505.69;5085166;28;20044;-79
2024/03/08 08:46:40;;;;;;;45.13;22.27;;;;;;;8.46;52.81;101501.41;5074903;28;20041;-80
2024/03/08 08:49:14;;;;;;;41.40;22.00;;;;;;;8.78;51.31;101495.47;5074994;28;20028;-79
2024/03/08 08:51:48;;;;;;;41.38;21.42;;;;;;;8.38;51.96;101492.47;5074631;28;20058;-79
2024/03/08 08:54:16;;;;;;;46.35;22.58;;;;;;;8.57;52.39;101492.25;5075046;28;20036;-79
2024/03/08 08:56:45;;;;;;;44.38;23.17;;;;;;;8.79;50.81;101497.25;5073460;28;20040;-80
2024/03/08 08:59:13;;;;;;;46.58;22.65;;;;;;;9.08;50.31;101494.66;5075265;28;20032;-79
2024/03/08 09:01:48;;;;;;;43.08;21.45;;;;;;;8.83;51.49;101495.66;5073727;28;20029;-79
2024/03/08 09:04:13;;;;;;;;;;;;;;;9.39;49.98;101489.50;5075319;28;20059;-78
2024/03/08 09:06:42;;;;;;;41.67;21.20;;;;;;;9.31;50.26;101488.38;5076649;28;19912;-81
2024/03/08 09:09:13;;;;;;;43.22;21.48;;;;;;;9.29;49.58;101482.25;5077642;28;20029;-81
2024/03/08 09:11:41;;;;;;;41.97;20.83;;;;;;;9.02;50.18;101476.28;5076742;28;20039;-80
2024/03/08 09:14:07;;;;;;;40.30;21.33;;;;;;;8.96;50.56;101471.78;5073694;28;20090;-81
2024/03/08 09:16:33;;;;;;;42.20;21.85;;;;;;;9.72;48.83;101469.56;5072988;28;20044;-79
2024/03/08 09:18:58;;;;;;;41.60;21.45;;;;;;;9.64;49.02;101463.25;5077121;28;20028;-81
2024/03/08 09:21:24;;;;;;;44.40;21.48;;;;;;;9.15;50.09;101462.78;5074532;28;20378;-80
2024/03/08 09:23:53;;;;;;;41.67;21.83;;;;;;;9.31;49.94;101458.03;5076950;28;20716;-79
2024/03/08 09:26:24;;;;;;;39.83;21.13;;;;;;;9.49;49.15;101457.66;5077600;28;20052;-80
2024/03/08 09:28:49;;;;;;;43.17;21.55;;;;;;;9.65;49.06;101459.81;5078766;28;20062;-78
2024/03/08 09:31:18;;;;;;;40.92;21.08;;;;;;;9.06;50.70;101453.00;5080410;28;20033;-80
2024/03/08 09:33:44;;;;;;;41.67;21.67;;;;;;;9.35;49.91;101444.28;5076835;28;20115;-79
2024/03/08 09:36:15;;;;;;;42.60;21.25;;;;;;;9.22;50.18;101431.75;5074466;28;20032;-80
2024/03/08 09:38:40;;;;;;;42.30;21.35;;;;;;;9.46;49.77;101441.06;5074769;28;20039;-81
2024/03/08 09:41:06;;;;;;;40.60;22.20;;;;;;;9.92;48.67;101432.75;5074299;28;20036;-82
2024/03/08 09:43:32;;;;;;;44.10;21.30;;;;;;;9.60;50.01;101422.38;5072656;28;20032;-78
2024/03/08 09:45:57;;;;;;;44.05;22.23;;;;;;;10.33;48.55;101423.34;5071989;28;20037;-83
2024/03/08 09:48:23;;;;;;;41.85;21.50;;;;;;;9.92;48.67;101415.38;5072662;28;20131;-81
2024/03/08 09:50:49;;;;;;;40.22;21.95;;;;;;;9.78;49.17;101415.03;5072911;28;20029;-79
2024/03/08 09:53:14;;;;;;;40.75;20.80;;;;;;;9.72;49.16;101396.66;5073665;28;20035;-80
2024/03/08 09:55:44;;;;;;;42.22;21.00;;;;;;;9.65;50.01;101391.25;5070323;28;20036;-79
2024/03/08 09:58:36;;;;;;;42.25;22.27;;;;;;;10.09;48.67;101388.00;5073646;28;20605;-79
2024/03/08 10:01:02;;;;;;;43.90;21.80;;;;;;;10.65;47.63;101382.34;5072375;28;20029;-79
2024/03/08 10:03:28;;;;;;;42.70;21.05;;;;;;;10.68;48.08;101371.94;5072332;28;20089;-79
2024/03/08 10:05:56;;;;;;;41.83;21.85;;;;;;;10.25;48.01;101368.41;5073050;28;20384;-80
2024/03/08 10:08:21;;;;;;;38.70;21.45;;;;;;;10.45;47.73;101356.72;5071263;28;20028;-79
2024/03/08 10:10:53;;;;;;;43.33;20.98;;;;;;;10.08;48.11;101370.63;5071954;28;20040;-78
2024/03/08 10:13:21;;;;;;;43.63;21.92;;;;;;;10.39;47.88;101353.97;5075442;28;20029;-81
2024/03/08 10:15:46;;;;;;;39.78;20.20;;;;;;;10.16;48.08;101356.09;5074948;28;20052;-78
2024/03/08 10:18:12;;;;;;;41.28;20.85;;;;;;;10.27;47.89;101358.94;5074562;28;20029;-80
2024/03/08 10:20:37;;;;;;;40.97;21.20;;;;;;;10.49;47.19;101342.88;5074573;28;20049;-79
2024/03/08 10:23:04;;;;;;;40.45;20.73;;;;;;;10.66;46.94;101334.56;5075628;28;20060;-79
2024/03/08 10:25:39;;;;;;;39.47;20.75;;;;;;;10.78;47.53;101324.38;5075968;28;20028;-80
2024/03/08 10:28:05;;;;;;;38.55;20.50;;;;;;;10.88;46.56;101324.56;5073777;28;20032;-80
2024/03/08 10:30:30;;;;;;;42.78;20.58;;;;;;;10.77;47.34;101323.50;5073003;28;20033;-78
2024/03/08 10:32:59;;;;;;;41.25;20.80;;;;;;;10.38;47.68;101323.53;5074395;28;20021;-79
2024/03/08 10:35:26;;;;;;;37.83;20.40;;;;;;;10.87;46.34;101316.72;5071633;28;20033;-80
2024/03/08 10:38:03;;;;;;;36.25;20.08;;;;;;;11.05;46.27;101310.94;5072742;28;20031;-79
2024/03/08 10:40:29;;;;;;;37.35;20.33;;;;;;;10.89;46.23;101302.88;5075639;28;20342;-79
2024/03/08 10:42:59;;;;;;;38.10;20.33;;;;;;;10.78;47.28;101301.78;5082065;28;20040;-79
2024/03/08 10:45:42;;;;;;;37.60;20.13;;;;;;;10.82;46.19;101282.72;5081851;28;20037;-80
2024/03/08 10:48:23;;;;;;;36.45;19.98;;;;;;;11.28;45.80;101275.72;5072739;28;20052;-77
2024/03/08 10:50:50;;;;;;;40.45;19.30;;;;;;;11.11;45.49;101284.97;5073034;28;20124;-80
2024/03/08 10:53:22;;;;;;;36.38;19.60;;;;;;;11.63;44.72;101271.06;5075442;28;20550;-81
2024/03/08 10:55:49;;;;;;;36.00;19.75;;;;;;;11.76;44.84;101266.09;5078184;28;20036;-80
2024/03/08 10:58:16;;;;;;;37.92;20.23;;;;;;;12.15;45.00;101257.91;5079564;28;20028;-80
2024/03/08 11:00:42;;;;;;;40.78;20.40;;;;;;;11.94;43.56;101256.75;5078440;28;20029;-80
2024/03/08 11:03:29;;;;;;;33.47;18.33;;;;;;;11.73;44.11;101258.19;5078737;28;20062;-79
2024/03/08 11:05:54;;;;;;;35.38;19.45;;;;;;;11.39;44.15;101237.63;5077634;28;20040;-79
2024/03/08 11:08:26;;;;;;;35.60;19.30;;;;;;;11.55;43.92;101231.78;5077238;28;20050;-79
2024/03/08 11:10:54;;;;;;;34.75;18.25;;;;;;;11.16;43.91;101234.63;5075921;28;20040;-81
2024/03/08 11:13:36;;;;;;;35.33;19.15;;;;;;;11.51;43.67;101235.19;5075370;28;20123;-80
2024/03/08 11:16:25;;;;;;;33.55;18.25;;;;;;;11.43;43.50;101226.38;5075504;28;20025;-78
2024/03/08 11:18:53;;;;;;;33.00;18.02;;;;;;;11.54;43.69;101218.69;5078556;28;20497;-79